Impacts METAR Board
IDs:

KBFM - Mobile/Downtown Arpt, AL, US

Updated at: 2300 UTC 02 Oct 2022
Potential Impact None Slight Moderate High
Time 02/11Z 02/12Z 02/13Z 02/14Z 02/15Z 02/16Z 02/17Z 02/18Z 02/19Z 02/20Z 02/21Z 02/22Z 02/23Z
Temp55 54 62 70 75 78 80 87 88 89 88 86 82
Dewpt46 46 48 47 48 47 48 43 37 36 38 39 43
Altim30.03 30.04 30.06 30.08 30.09 30.09 30.07 30.05 30.02 30.00 29.99 29.99 29.99
VIS10 10 10 10 10 10 10 10 10 10 10 10 10
CIG-- -- -- -- -- -- -- -- -- -- -- -- --
CoverCLRCLRCLRCLRCLRCLRCLRCLRCLRCLRCLRCLRCLR
FltCatVFRVFRVFRVFRVFRVFRVFRVFRVFRVFRVFRVFRVFR
WX--------------------------
WDir32032034035030300350330340310310320
WSpd5 5 7 7 6 5 4 8 12 13 11 10 10
WGst-- -- -- -- -- -- -- -- -- 17 -- -- --
Raw hourly METARs
KBFM 021053Z AUTO 32005KT 10SM CLR 13/08 A3003 RMK AO2 SLP168 T01280078
KBFM 021153Z 32005KT 10SM CLR 12/08 A3004 RMK AO2 SLP173 T01220078 10161 20117 53010
KBFM 021253Z 34007KT 10SM CLR 17/09 A3006 RMK AO2 SLP179 T01670089
KBFM 021353Z 35007KT 10SM CLR 21/08 A3008 RMK AO2 SLP184 T02110083
KBFM 021453Z 03006KT 10SM CLR 24/09 A3009 RMK AO2 SLP187 T02390089 51015
KBFM 021553Z 03005KT 10SM CLR 26/08 A3009 RMK AO2 SLP188 T02560083
KBFM 021653Z VRB04KT 10SM CLR 27/09 A3007 RMK AO2 SLP182 T02670089
KBFM 021753Z 35008KT 10SM CLR 31/06 A3005 RMK AO2 SLP175 T03060061 10306 20122 58013
KBFM 021853Z 33012KT 10SM CLR 31/03 A3002 RMK AO2 SLP166 T03110028
KBFM 021953Z 34013G17KT 10SM CLR 32/02 A3000 RMK AO2 SLP158 T03170022
KBFM 022053Z 31011KT 10SM CLR 31/03 A2999 RMK AO2 SLP156 T03110033 56019
KBFM 022153Z 31010KT 10SM CLR 30/04 A2999 RMK AO2 SLP155 T03000039
KBFM 022253Z 32010KT 10SM CLR 28/06 A2999 RMK AO2 SLP156 T02780061



Page loaded:  23:28 UTC  |   04:28 PM Pacific  |   05:28 PM Mountain  |   06:28 PM Central  |   07:28 PM Eastern

 

ADVISORIES

FORECASTS

FORECASTS

OBSERVATIONS

USER TOOLS

ABOUT US